createdAt,value
2022-08-30T00:01:05.357Z,7.20
2022-08-30T00:06:09.698Z,13.20
2022-08-30T00:11:14.484Z,10.90
2022-08-30T00:16:17.596Z,12.77
2022-08-30T00:21:19.722Z,11.10
2022-08-30T00:26:22.628Z,7.07
2022-08-30T00:31:24.550Z,15.93
2022-08-30T00:36:26.646Z,7.28
2022-08-30T00:41:37.445Z,11.38
2022-08-30T00:46:39.429Z,14.13
2022-08-30T00:52:01.928Z,9.07
2022-08-30T00:57:05.117Z,11.13
2022-08-30T01:02:07.547Z,12.52
2022-08-30T01:07:09.469Z,12.75
2022-08-30T01:12:11.843Z,17.75
2022-08-30T01:17:14.655Z,15.48
2022-08-30T01:22:45.354Z,9.45
2022-08-30T01:27:56.004Z,13.55
2022-08-30T01:33:01.275Z,11.90
2022-08-30T01:38:03.217Z,9.85
2022-08-30T01:43:05.741Z,11.48
2022-08-30T01:48:08.498Z,7.82
2022-08-30T01:53:13.053Z,11.75
2022-08-30T01:58:15.318Z,12.98
2022-08-30T02:03:17.518Z,10.95
2022-08-30T02:08:19.478Z,14.63
2022-08-30T02:13:21.388Z,11.57
2022-08-30T02:18:25.252Z,8.70
2022-08-30T02:23:27.969Z,7.80
2022-08-30T02:28:30.140Z,8.35
2022-08-30T02:33:32.199Z,7.88
2022-08-30T02:38:34.504Z,12.35
2022-08-30T02:43:36.389Z,12.77
2022-08-30T02:48:38.376Z,10.60
2022-08-30T02:53:42.493Z,11.23
2022-08-30T02:58:45.337Z,11.07
2022-08-30T03:03:47.327Z,11.63
2022-08-30T03:08:49.295Z,16.95
2022-08-30T03:13:51.359Z,9.65
2022-08-30T03:18:53.308Z,14.15
2022-08-30T03:23:55.148Z,7.85
2022-08-30T03:28:57.003Z,10.48
2022-08-30T03:33:58.942Z,8.23
2022-08-30T03:39:00.822Z,11.63
2022-08-30T03:44:04.355Z,8.98
2022-08-30T03:49:07.979Z,9.32
2022-08-30T03:54:10.134Z,9.70
2022-08-30T03:59:12.099Z,11.43
2022-08-30T04:04:18.657Z,10.25
2022-08-30T04:09:23.542Z,24.45
2022-08-30T04:14:25.418Z,18.48
2022-08-30T04:19:27.302Z,33.45
2022-08-30T04:24:29.242Z,21.58
2022-08-30T04:29:31.482Z,20.02
2022-08-30T04:34:33.386Z,13.30
2022-08-30T04:39:35.329Z,12.10
2022-08-30T04:44:37.363Z,14.30
2022-08-30T04:49:39.488Z,16.98
2022-08-30T04:54:41.419Z,14.82
2022-08-30T04:59:43.279Z,14.85
2022-08-30T05:05:03.985Z,14.73
2022-08-30T05:10:10.961Z,12.88
2022-08-30T05:15:13.678Z,15.23
2022-08-30T05:20:16.240Z,10.48
2022-08-30T05:25:20.774Z,10.43
2022-08-30T05:30:24.100Z,14.20
2022-08-30T05:35:26.091Z,12.18
2022-08-30T05:40:29.182Z,11.65
2022-08-30T05:45:31.285Z,9.07
2022-08-30T05:50:34.975Z,14.20
2022-08-30T05:55:41.522Z,15.75
2022-08-30T06:00:43.400Z,9.90
2022-08-30T06:10:55.244Z,11.38
2022-08-30T06:15:57.430Z,10.48
2022-08-30T06:20:59.387Z,16.98
2022-08-30T06:26:07.762Z,17.73
2022-08-30T06:31:12.461Z,10.73
2022-08-30T06:36:17.621Z,8.63
2022-08-30T06:41:22.502Z,11.35
2022-08-30T06:46:31.047Z,15.05
2022-08-30T06:51:37.111Z,11.13
2022-08-30T06:56:40.210Z,11.02
2022-08-30T07:01:44.381Z,11.05
2022-08-30T07:06:46.593Z,10.45
2022-08-30T07:11:48.664Z,8.60
2022-08-30T07:16:51.334Z,7.13
2022-08-30T07:21:54.135Z,8.43
2022-08-30T07:26:56.012Z,5.82
2022-08-30T07:31:57.906Z,5.43
2022-08-30T07:36:59.925Z,8.10
2022-08-30T07:42:02.259Z,9.13
2022-08-30T07:47:05.628Z,6.40
2022-08-30T07:52:07.661Z,4.32
2022-08-30T07:57:09.559Z,9.40
2022-08-30T08:02:11.455Z,5.72
2022-08-30T08:07:13.365Z,14.15
2022-08-30T08:12:15.350Z,6.90
2022-08-30T08:17:17.293Z,6.40
2022-08-30T08:22:21.553Z,9.15
2022-08-30T08:27:24.856Z,7.78
2022-08-30T08:32:26.763Z,4.88
2022-08-30T08:37:28.654Z,13.90
2022-08-30T08:42:54.778Z,8.07
2022-08-30T08:48:04.060Z,5.35
2022-08-30T08:53:46.651Z,11.77
2022-08-30T08:58:53.340Z,8.52
2022-08-30T09:03:57.399Z,7.25
2022-08-30T09:08:59.556Z,6.40
2022-08-30T09:14:01.459Z,7.22
2022-08-30T09:19:03.869Z,7.88
2022-08-30T09:24:08.759Z,4.57
2022-08-30T09:29:18.429Z,5.57
2022-08-30T09:34:23.959Z,8.73
2022-08-30T09:39:34.817Z,5.82
2022-08-30T09:44:38.227Z,5.55
2022-08-30T09:49:45.650Z,3.25
2022-08-30T09:55:21.352Z,4.35
2022-08-30T10:00:29.025Z,4.45
2022-08-30T10:05:33.565Z,8.73
2022-08-30T10:10:46.798Z,10.98
2022-08-30T10:15:58.693Z,4.10
2022-08-30T10:21:00.535Z,5.53
2022-08-30T10:26:14.653Z,4.68
2022-08-30T10:31:29.611Z,7.75
2022-08-30T10:41:44.689Z,6.40
2022-08-30T10:47:22.953Z,8.30
2022-08-30T10:52:44.381Z,3.97
2022-08-30T10:57:48.641Z,5.18
2022-08-30T11:03:05.680Z,4.43
2022-08-30T11:08:22.184Z,7.72
2022-08-30T11:13:30.002Z,4.25
2022-08-30T11:18:50.926Z,5.82
2022-08-30T11:24:21.115Z,4.57
2022-08-30T11:29:43.823Z,6.70
2022-08-30T11:34:46.555Z,4.85
2022-08-30T11:39:48.997Z,5.05
2022-08-30T11:44:50.943Z,5.68
2022-08-30T11:50:09.933Z,8.18
2022-08-30T11:55:34.411Z,6.07
2022-08-30T12:00:44.904Z,3.03
2022-08-30T12:06:07.271Z,4.30
2022-08-30T12:11:12.405Z,6.93
2022-08-30T12:16:22.093Z,4.65
2022-08-30T12:21:31.177Z,4.25
2022-08-30T12:26:44.926Z,4.65
2022-08-30T12:31:52.798Z,3.47
2022-08-30T12:37:05.564Z,3.60
2022-08-30T12:42:20.447Z,3.72
2022-08-30T12:47:28.543Z,4.15
2022-08-30T12:52:40.839Z,4.70
2022-08-30T12:58:10.128Z,5.13
2022-08-30T13:03:54.182Z,5.30
2022-08-30T13:08:56.137Z,5.22
2022-08-30T13:14:20.983Z,7.78
2022-08-30T13:19:36.054Z,5.10
2022-08-30T13:24:37.909Z,4.72
2022-08-30T13:29:40.602Z,4.88
2022-08-30T13:34:45.351Z,5.47
2022-08-30T13:39:47.292Z,8.50
2022-08-30T13:44:49.993Z,3.45
2022-08-30T13:49:51.880Z,5.40
2022-08-30T13:54:55.647Z,6.40
2022-08-30T13:59:57.742Z,8.20
2022-08-30T14:05:02.853Z,4.05
2022-08-30T14:15:28.738Z,3.53
2022-08-30T14:20:31.166Z,6.43
2022-08-30T14:25:33.391Z,3.05
2022-08-30T14:30:35.430Z,3.42
2022-08-30T14:35:37.378Z,4.65
2022-08-30T14:40:41.482Z,3.30
2022-08-30T14:45:43.775Z,3.75
2022-08-30T14:50:45.778Z,3.58
2022-08-30T14:55:47.659Z,2.92
2022-08-30T15:00:52.626Z,3.30
2022-08-30T15:05:54.543Z,4.90
2022-08-30T15:10:56.527Z,6.13
2022-08-30T15:15:58.473Z,2.95
2022-08-30T15:21:00.346Z,4.38
2022-08-30T15:26:02.721Z,11.00
2022-08-30T15:31:08.701Z,6.47
2022-08-30T15:36:12.648Z,4.07
2022-08-30T15:41:15.675Z,2.83
2022-08-30T15:46:29.937Z,2.88
2022-08-30T15:51:41.153Z,4.80
2022-08-30T15:56:44.908Z,2.97
2022-08-30T16:01:47.662Z,4.03
2022-08-30T16:06:50.097Z,3.72
2022-08-30T16:11:54.442Z,5.22
2022-08-30T16:16:57.118Z,3.35
2022-08-30T16:21:59.547Z,7.03
2022-08-30T16:27:01.561Z,8.85
2022-08-30T16:32:03.794Z,4.43
2022-08-30T16:37:05.672Z,3.42
2022-08-30T16:42:08.012Z,6.65
2022-08-30T16:47:13.332Z,2.95
2022-08-30T16:52:16.701Z,2.75
2022-08-30T16:57:20.154Z,3.92
2022-08-30T17:02:22.223Z,3.90
2022-08-30T17:07:24.274Z,2.38
2022-08-30T17:12:26.360Z,2.60
2022-08-30T17:17:28.277Z,4.05
2022-08-30T17:22:31.648Z,8.27
2022-08-30T17:27:33.703Z,5.28
2022-08-30T17:32:35.960Z,3.20
2022-08-30T17:37:38.140Z,6.47
2022-08-30T17:42:40.883Z,4.15
2022-08-30T17:47:43.746Z,5.15
2022-08-30T17:52:45.779Z,4.10
2022-08-30T17:57:47.838Z,6.47
2022-08-30T18:02:53.108Z,3.17
2022-08-30T18:07:55.470Z,3.42
2022-08-30T18:12:58.735Z,5.43
2022-08-30T18:18:00.745Z,4.00
2022-08-30T18:23:02.807Z,5.13
2022-08-30T18:28:07.047Z,5.50
2022-08-30T18:33:08.905Z,4.38
2022-08-30T18:38:11.047Z,5.65
2022-08-30T18:43:13.273Z,4.22
2022-08-30T18:48:16.034Z,3.83
2022-08-30T18:53:28.640Z,6.55
2022-08-30T18:58:31.210Z,4.40
2022-08-30T19:03:33.979Z,3.67
2022-08-30T19:08:36.514Z,4.13
2022-08-30T19:13:39.270Z,4.22
2022-08-30T19:18:41.585Z,4.93
2022-08-30T19:23:43.648Z,3.55
2022-08-30T19:28:45.506Z,3.47
2022-08-30T19:33:47.686Z,5.03
2022-08-30T19:38:49.585Z,4.95
2022-08-30T19:43:51.592Z,4.55
2022-08-30T19:48:53.462Z,5.65
2022-08-30T19:53:56.327Z,5.07
2022-08-30T19:59:00.653Z,6.13
2022-08-30T20:04:02.846Z,6.03
2022-08-30T20:09:05.539Z,3.65
2022-08-30T20:14:13.546Z,4.53
2022-08-30T20:19:18.561Z,4.35
2022-08-30T20:24:25.095Z,5.20
2022-08-30T20:29:28.558Z,4.95
2022-08-30T20:34:30.581Z,4.05
2022-08-30T20:39:32.459Z,4.47
2022-08-30T20:44:34.818Z,4.05
2022-08-30T20:49:37.224Z,7.50
2022-08-30T20:54:39.480Z,4.35
2022-08-30T20:59:41.337Z,7.22
2022-08-30T21:04:43.213Z,7.68
2022-08-30T21:09:45.787Z,6.38
2022-08-30T21:14:47.704Z,7.25
2022-08-30T21:19:49.666Z,8.90
2022-08-30T21:24:54.669Z,6.20
2022-08-30T21:29:57.463Z,4.63
2022-08-30T21:35:18.006Z,7.32
2022-08-30T21:40:20.231Z,5.88
2022-08-30T21:45:22.286Z,5.53
2022-08-30T21:50:24.152Z,7.90
2022-08-30T21:55:26.028Z,5.82
2022-08-30T22:00:27.929Z,4.78
2022-08-30T22:05:29.762Z,6.85
2022-08-30T22:10:33.380Z,5.28
2022-08-30T22:15:35.409Z,5.30
2022-08-30T22:20:39.880Z,3.88
2022-08-30T22:25:43.255Z,5.43
2022-08-30T22:30:45.570Z,7.13
2022-08-30T22:35:47.444Z,6.00
2022-08-30T22:40:54.164Z,10.27
2022-08-30T22:45:57.970Z,5.70
2022-08-30T22:50:59.845Z,4.25
2022-08-30T22:56:08.756Z,5.55
2022-08-30T23:01:22.821Z,8.52
2022-08-30T23:06:25.329Z,7.75
2022-08-30T23:11:27.531Z,6.88
2022-08-30T23:16:32.632Z,8.43
2022-08-30T23:21:34.717Z,4.63
2022-08-30T23:26:55.502Z,6.90
2022-08-30T23:32:16.355Z,7.72
2022-08-30T23:42:57.015Z,5.40
2022-08-30T23:48:17.366Z,8.67
2022-08-30T23:53:37.779Z,6.60
2022-08-30T23:59:01.792Z,6.88
